createdAt,value
2023-02-26T00:01:24.135Z,93496.47
2023-02-26T00:03:52.581Z,93495.78
2023-02-26T00:06:19.979Z,93507.16
2023-02-26T00:08:46.994Z,93506.72
2023-02-26T00:11:14.090Z,93499.94
2023-02-26T00:13:43.868Z,93502.31
2023-02-26T00:16:31.827Z,93500.22
2023-02-26T00:19:01.914Z,93516.19
2023-02-26T00:21:30.817Z,93507.97
2023-02-26T00:23:58.431Z,93504.53
2023-02-26T00:26:27.617Z,93515.56
2023-02-26T00:28:55.015Z,93506.41
2023-02-26T00:31:25.165Z,93495.44
2023-02-26T00:33:57.206Z,93518.16
2023-02-26T00:36:48.424Z,93517.88
2023-02-26T00:39:48.084Z,93507.84
2023-02-26T00:42:16.094Z,93518.16
2023-02-26T00:44:43.328Z,93516.13
2023-02-26T00:47:21.811Z,93524.75
2023-02-26T00:50:03.831Z,93527.75
2023-02-26T00:53:03.312Z,93522.47
2023-02-26T00:55:30.697Z,93520.59
2023-02-26T00:57:57.698Z,93518.81
2023-02-26T01:00:25.155Z,93517.22
2023-02-26T01:02:52.371Z,93503.50
2023-02-26T01:05:19.604Z,93501.44
2023-02-26T01:08:11.379Z,93505.13
2023-02-26T01:10:38.664Z,93494.66
2023-02-26T01:13:05.854Z,93504.38
2023-02-26T01:15:33.464Z,93499.50
2023-02-26T01:18:13.726Z,93506.88
2023-02-26T01:20:47.267Z,93501.19
2023-02-26T01:23:23.340Z,93502.53
2023-02-26T01:25:57.854Z,93509.88
2023-02-26T01:28:26.222Z,93509.06
2023-02-26T01:31:02.484Z,93510.41
2023-02-26T01:33:35.179Z,93514.38
2023-02-26T01:36:28.334Z,93512.78
2023-02-26T01:39:19.626Z,93510.41
2023-02-26T01:41:47.433Z,93519.06
2023-02-26T01:44:30.351Z,93518.25
2023-02-26T01:47:20.011Z,93520.66
2023-02-26T01:49:47.000Z,93526.72
2023-02-26T01:52:31.937Z,93529.09
2023-02-26T01:55:00.852Z,93526.28
2023-02-26T01:57:27.799Z,93523.63
2023-02-26T01:59:54.495Z,93521.50
2023-02-26T02:02:25.659Z,93523.84
2023-02-26T02:04:53.582Z,93519.16
2023-02-26T02:07:20.332Z,93535.94
2023-02-26T02:09:47.668Z,93523.91
2023-02-26T02:12:24.819Z,93529.44
2023-02-26T02:15:19.067Z,93527.88
2023-02-26T02:18:07.998Z,93537.06
2023-02-26T02:21:08.509Z,93539.94
2023-02-26T02:23:41.639Z,93537.34
2023-02-26T02:26:38.041Z,93530.56
2023-02-26T02:29:04.818Z,93542.59
2023-02-26T02:31:57.608Z,93538.63
2023-02-26T02:34:33.838Z,93539.13
2023-02-26T02:37:22.382Z,93540.75
2023-02-26T02:40:15.148Z,93544.72
2023-02-26T02:42:47.096Z,93546.56
2023-02-26T02:45:30.677Z,93545.78
2023-02-26T02:48:06.010Z,93552.38
2023-02-26T02:50:45.094Z,93550.03
2023-02-26T02:53:21.212Z,93542.44
2023-02-26T02:55:55.001Z,93546.59
2023-02-26T02:58:30.442Z,93550.78
2023-02-26T03:01:03.436Z,93545.81
2023-02-26T03:03:50.477Z,93549.22
2023-02-26T03:06:17.891Z,93561.34
2023-02-26T03:08:47.732Z,93550.31
2023-02-26T03:11:16.162Z,93558.19
2023-02-26T03:13:45.699Z,93562.34
2023-02-26T03:16:47.147Z,93568.13
2023-02-26T03:19:29.672Z,93571.00
2023-02-26T03:21:58.798Z,93575.78
2023-02-26T03:25:06.439Z,93567.13
2023-02-26T03:27:33.412Z,93570.53
2023-02-26T03:30:03.501Z,93567.63
2023-02-26T03:32:45.203Z,93577.34
2023-02-26T03:35:17.148Z,93579.47
2023-02-26T03:37:50.457Z,93576.34
2023-02-26T03:40:24.686Z,93571.09
2023-02-26T03:43:08.563Z,93571.56
2023-02-26T03:45:39.583Z,93571.84
2023-02-26T03:48:10.825Z,93585.78
2023-02-26T03:50:43.546Z,93586.81
2023-02-26T03:53:34.760Z,93580.53
2023-02-26T03:56:15.081Z,93575.53
2023-02-26T03:59:05.333Z,93591.81
2023-02-26T04:02:14.365Z,93585.25
2023-02-26T04:04:49.507Z,93591.00
2023-02-26T04:07:18.345Z,93592.34
2023-02-26T04:09:47.675Z,93594.69
2023-02-26T04:12:15.050Z,93587.88
2023-02-26T04:14:46.652Z,93593.59
2023-02-26T04:17:13.378Z,93600.97
2023-02-26T04:19:40.195Z,93599.13
2023-02-26T04:22:06.970Z,93607.53
2023-02-26T04:24:33.699Z,93599.41
2023-02-26T04:27:02.015Z,93615.38
2023-02-26T04:29:30.359Z,93615.38
2023-02-26T04:31:57.544Z,93607.78
2023-02-26T04:34:24.754Z,93608.31
2023-02-26T04:36:52.531Z,93614.06
2023-02-26T04:39:19.973Z,93613.25
2023-02-26T04:41:46.630Z,93624.25
2023-02-26T04:44:13.364Z,93629.00
2023-02-26T04:46:41.762Z,93614.28
2023-02-26T04:49:08.477Z,93632.09
2023-02-26T04:51:36.737Z,93628.41
2023-02-26T04:54:04.325Z,93609.75
2023-02-26T04:56:32.615Z,93630.28
2023-02-26T04:59:01.103Z,93638.91
2023-02-26T05:01:30.053Z,93638.41
2023-02-26T05:03:58.228Z,93645.22
2023-02-26T05:06:25.244Z,93642.53
2023-02-26T05:08:52.098Z,93647.50
2023-02-26T05:11:20.351Z,93639.13
2023-02-26T05:13:47.861Z,93646.72
2023-02-26T05:16:14.650Z,93655.41
2023-02-26T05:18:41.631Z,93650.88
2023-02-26T05:21:08.336Z,93654.56
2023-02-26T05:23:35.179Z,93656.66
2023-02-26T05:26:01.855Z,93662.69
2023-02-26T05:28:28.683Z,93655.88
2023-02-26T05:30:57.779Z,93664.28
2023-02-26T05:33:25.543Z,93666.28
2023-02-26T05:35:52.891Z,93666.59
2023-02-26T05:38:20.414Z,93671.06
2023-02-26T05:40:47.155Z,93673.97
2023-02-26T05:43:13.798Z,93674.25
2023-02-26T05:45:40.405Z,93677.69
2023-02-26T05:48:07.312Z,93681.69
2023-02-26T05:50:34.098Z,93671.22
2023-02-26T05:53:01.010Z,93670.13
2023-02-26T05:55:27.686Z,93682.47
2023-02-26T05:57:54.302Z,93684.34
2023-02-26T06:00:21.143Z,93690.09
2023-02-26T06:02:47.833Z,93693.50
2023-02-26T06:05:14.596Z,93690.34
2023-02-26T06:07:41.508Z,93698.22
2023-02-26T06:10:09.289Z,93700.84
2023-02-26T06:12:36.679Z,93705.56
2023-02-26T06:15:04.736Z,93700.84
2023-02-26T06:17:31.431Z,93704.00
2023-02-26T06:19:58.141Z,93712.97
2023-02-26T06:22:24.826Z,93716.13
2023-02-26T06:24:51.550Z,93724.75
2023-02-26T06:27:18.201Z,93725.00
2023-02-26T06:29:44.864Z,93730.50
2023-02-26T06:32:11.570Z,93726.06
2023-02-26T06:34:38.569Z,93732.38
2023-02-26T06:37:05.312Z,93736.28
2023-02-26T06:39:31.999Z,93732.91
2023-02-26T06:41:58.974Z,93747.38
2023-02-26T06:44:25.690Z,93733.50
2023-02-26T06:46:52.652Z,93735.88
2023-02-26T06:49:19.384Z,93736.66
2023-02-26T06:51:45.991Z,93734.84
2023-02-26T06:54:12.619Z,93742.72
2023-02-26T06:56:39.620Z,93754.25
2023-02-26T06:59:06.328Z,93734.00
2023-02-26T07:01:33.086Z,93747.16
2023-02-26T07:03:59.889Z,93754.53
2023-02-26T07:06:28.096Z,93758.97
2023-02-26T07:08:56.002Z,93763.47
2023-02-26T07:11:23.059Z,93767.38
2023-02-26T07:13:51.481Z,93771.38
2023-02-26T07:16:18.390Z,93768.22
2023-02-26T07:18:45.128Z,93760.34
2023-02-26T07:21:11.776Z,93756.56
2023-02-26T07:23:38.694Z,93763.69
2023-02-26T07:26:05.407Z,93781.34
2023-02-26T07:28:32.043Z,93776.88
2023-02-26T07:30:58.915Z,93781.34
2023-02-26T07:33:26.657Z,93780.56
2023-02-26T07:35:53.357Z,93786.09
2023-02-26T07:38:20.418Z,93793.19
2023-02-26T07:40:47.429Z,93795.56
2023-02-26T07:43:14.301Z,93796.63
2023-02-26T07:45:40.951Z,93799.22
2023-02-26T07:48:07.637Z,93790.28
2023-02-26T07:50:34.307Z,93786.50
2023-02-26T07:53:00.975Z,93785.47
2023-02-26T07:55:27.842Z,93788.59
2023-02-26T07:57:54.492Z,93788.09
2023-02-26T08:00:21.589Z,93789.63
2023-02-26T08:02:48.404Z,93793.59
2023-02-26T08:05:15.189Z,93786.47
2023-02-26T08:07:42.109Z,93794.50
2023-02-26T08:10:10.275Z,93794.91
2023-02-26T08:12:37.010Z,93799.13
2023-02-26T08:15:05.196Z,93809.03
2023-02-26T08:17:31.876Z,93800.97
2023-02-26T08:19:58.500Z,93803.25
2023-02-26T08:22:25.168Z,93807.28
2023-02-26T08:24:51.831Z,93816.09
2023-02-26T08:27:18.537Z,93806.97
2023-02-26T08:29:46.375Z,93814.97
2023-02-26T08:32:15.810Z,93800.63
2023-02-26T08:34:42.633Z,93814.91
2023-02-26T08:37:11.574Z,93810.50
2023-02-26T08:39:39.095Z,93818.63
2023-02-26T08:42:07.367Z,93810.22
2023-02-26T08:44:34.760Z,93827.81
2023-02-26T08:47:01.807Z,93818.63
2023-02-26T08:49:28.501Z,93826.75
2023-02-26T08:51:55.155Z,93834.06
2023-02-26T08:54:21.855Z,93834.31
2023-02-26T08:56:48.575Z,93850.16
2023-02-26T08:59:15.246Z,93856.75
2023-02-26T09:01:42.074Z,93855.97
2023-02-26T09:04:08.828Z,93856.25
2023-02-26T09:06:35.772Z,93858.88
2023-02-26T09:09:02.690Z,93862.56
2023-02-26T09:11:30.797Z,93867.03
2023-02-26T09:13:59.064Z,93874.88
2023-02-26T09:16:26.956Z,93879.31
2023-02-26T09:18:56.135Z,93868.78
2023-02-26T09:21:23.234Z,93876.69
2023-02-26T09:23:50.176Z,93871.16
2023-02-26T09:26:16.822Z,93863.81
2023-02-26T09:28:43.814Z,93879.66
2023-02-26T09:31:10.599Z,93893.59
2023-02-26T09:33:37.372Z,93890.19
2023-02-26T09:36:04.368Z,93885.16
2023-02-26T09:38:31.097Z,93886.47
2023-02-26T09:41:02.354Z,93894.09
2023-02-26T09:43:41.132Z,93899.06
2023-02-26T09:46:26.153Z,93905.66
2023-02-26T09:49:05.762Z,93898.56
2023-02-26T09:51:35.955Z,93903.81
2023-02-26T09:54:16.021Z,93909.88
2023-02-26T09:56:44.497Z,93911.19
2023-02-26T09:59:11.939Z,93907.50
2023-02-26T10:01:46.421Z,93893.31
2023-02-26T10:04:39.477Z,93900.44
2023-02-26T10:07:06.021Z,93901.47
2023-02-26T10:09:41.469Z,93904.31
2023-02-26T10:12:13.709Z,93898.00
2023-02-26T10:14:50.910Z,93910.59
2023-02-26T10:18:01.918Z,93912.44
2023-02-26T10:20:46.822Z,93907.44
2023-02-26T10:23:19.566Z,93908.44
2023-02-26T10:25:46.696Z,93913.44
2023-02-26T10:28:41.814Z,93910.00
2023-02-26T10:31:26.961Z,93908.69
2023-02-26T10:34:19.718Z,93907.97
2023-02-26T10:37:15.653Z,93913.22
2023-02-26T10:39:46.822Z,93920.88
2023-02-26T10:42:18.544Z,93915.81
2023-02-26T10:45:06.752Z,93919.84
2023-02-26T10:47:51.764Z,93910.84
2023-02-26T10:50:21.246Z,93915.16
2023-02-26T10:52:50.459Z,93909.81
2023-02-26T10:55:37.983Z,93915.81
2023-02-26T10:58:21.527Z,93913.88
2023-02-26T11:00:50.975Z,93917.03
2023-02-26T11:03:29.001Z,93917.63
2023-02-26T11:05:56.881Z,93916.06
2023-02-26T11:08:48.875Z,93930.59
2023-02-26T11:11:40.459Z,93930.09
2023-02-26T11:14:08.730Z,93927.47
2023-02-26T11:16:41.382Z,93934.59
2023-02-26T11:19:09.146Z,93935.13
2023-02-26T11:21:40.958Z,93936.19
2023-02-26T11:24:29.654Z,93924.06
2023-02-26T11:26:58.432Z,93932.47
2023-02-26T11:29:26.001Z,93933.28
2023-02-26T11:31:55.515Z,93938.03
2023-02-26T11:34:24.319Z,93939.34
2023-02-26T11:36:53.440Z,93933.03
2023-02-26T11:39:26.944Z,93934.59
2023-02-26T11:41:57.653Z,93942.50
2023-02-26T11:44:40.275Z,93955.13
2023-02-26T11:47:07.885Z,93951.44
2023-02-26T11:49:34.648Z,93956.44
2023-02-26T11:52:10.563Z,93951.97
2023-02-26T11:54:39.573Z,93952.75
2023-02-26T11:57:11.613Z,93953.81
2023-02-26T11:59:40.203Z,93957.25
2023-02-26T12:02:15.182Z,93956.69
2023-02-26T12:04:49.909Z,93958.00
2023-02-26T12:07:17.949Z,93953.28
2023-02-26T12:09:45.738Z,93952.75
2023-02-26T12:12:15.416Z,93953.28
2023-02-26T12:15:11.812Z,93959.09
2023-02-26T12:17:57.622Z,93944.59
2023-02-26T12:20:40.540Z,93940.59
2023-02-26T12:23:14.387Z,93939.47
2023-02-26T12:25:53.326Z,93955.38
2023-02-26T12:28:43.201Z,93952.75
2023-02-26T12:31:15.992Z,93953.00
2023-02-26T12:33:57.490Z,93950.34
2023-02-26T12:36:49.803Z,93951.66
2023-02-26T12:39:37.756Z,93953.50
2023-02-26T12:42:25.213Z,93956.66
2023-02-26T12:45:12.188Z,93950.56
2023-02-26T12:48:06.825Z,93959.28
2023-02-26T12:50:45.390Z,93962.72
2023-02-26T12:53:14.738Z,93975.31
2023-02-26T12:55:47.323Z,93966.41
2023-02-26T12:58:51.703Z,93971.16
2023-02-26T13:01:37.738Z,93970.09
2023-02-26T13:04:18.450Z,93967.94
2023-02-26T13:06:54.244Z,93971.09
2023-02-26T13:09:33.245Z,93970.63
2023-02-26T13:12:09.652Z,93970.09
2023-02-26T13:14:51.435Z,93977.47
2023-02-26T13:17:29.423Z,93967.47
2023-02-26T13:20:01.541Z,93972.16
2023-02-26T13:22:38.325Z,93977.09
2023-02-26T13:25:18.262Z,93971.50
2023-02-26T13:27:46.372Z,93974.13
2023-02-26T13:30:12.959Z,93976.00
2023-02-26T13:32:42.656Z,93967.50
2023-02-26T13:35:29.673Z,93966.91
2023-02-26T13:37:58.749Z,93972.44
2023-02-26T13:41:02.904Z,93967.00
2023-02-26T13:43:54.651Z,93968.47
2023-02-26T13:46:42.450Z,93950.47
2023-02-26T13:49:15.059Z,93970.72
2023-02-26T13:51:49.209Z,93951.34
2023-02-26T13:54:21.958Z,93959.88
2023-02-26T13:57:25.895Z,93971.25
2023-02-26T14:00:21.974Z,93970.63
2023-02-26T14:03:11.005Z,93971.94
2023-02-26T14:05:46.864Z,93968.25
2023-02-26T14:08:28.312Z,93973.16
2023-02-26T14:11:05.486Z,93968.41
2023-02-26T14:13:41.796Z,93969.53
2023-02-26T14:16:23.566Z,93959.59
2023-02-26T14:18:52.126Z,93967.31
2023-02-26T14:21:28.059Z,93967.19
2023-02-26T14:24:01.573Z,93974.38
2023-02-26T14:26:36.436Z,93971.59
2023-02-26T14:29:06.120Z,93976.59
2023-02-26T14:31:51.312Z,93977.56
2023-02-26T14:34:32.688Z,93976.53
2023-02-26T14:37:02.735Z,93982.31
2023-02-26T14:39:34.887Z,93982.88
2023-02-26T14:42:06.220Z,93988.41
2023-02-26T14:44:41.049Z,93986.03
2023-02-26T14:47:09.637Z,93990.66
2023-02-26T14:49:38.919Z,93991.78
2023-02-26T14:52:43.793Z,94005.56
2023-02-26T14:55:54.191Z,94000.66
2023-02-26T14:58:54.868Z,94021.84
2023-02-26T15:01:54.093Z,94031.69
2023-02-26T15:04:48.543Z,94025.91
2023-02-26T15:07:39.601Z,94036.16
2023-02-26T15:10:36.642Z,94042.22
2023-02-26T15:13:24.929Z,94050.41
2023-02-26T15:16:08.633Z,94040.13
2023-02-26T15:18:38.537Z,94049.34
2023-02-26T15:21:20.293Z,94035.91
2023-02-26T15:23:50.631Z,94040.63
2023-02-26T15:26:23.104Z,94039.84
2023-02-26T15:28:50.228Z,94046.16
2023-02-26T15:31:20.908Z,94044.31
2023-02-26T15:33:49.386Z,94053.53
2023-02-26T15:36:21.844Z,94053.81
2023-02-26T15:38:53.716Z,94063.28
2023-02-26T15:41:20.965Z,94061.44
2023-02-26T15:44:10.811Z,94073.78
2023-02-26T15:46:43.913Z,94090.06
2023-02-26T15:49:17.650Z,94088.22
2023-02-26T15:51:45.591Z,94077.13
2023-02-26T15:54:18.123Z,94091.31
2023-02-26T15:56:44.855Z,94089.22
2023-02-26T15:59:17.614Z,94088.97
2023-02-26T16:01:44.659Z,94079.75
2023-02-26T16:04:14.924Z,94091.13
2023-02-26T16:06:47.287Z,94099.00
2023-02-26T16:09:28.002Z,94100.06
2023-02-26T16:12:01.082Z,94097.44
2023-02-26T16:14:34.584Z,94101.38
2023-02-26T16:17:01.681Z,94089.28
2023-02-26T16:19:48.835Z,94099.53
2023-02-26T16:22:33.200Z,94101.63
2023-02-26T16:25:05.942Z,94106.34
2023-02-26T16:27:34.450Z,94107.41
2023-02-26T16:30:03.825Z,94114.25
2023-02-26T16:32:34.226Z,94120.59
2023-02-26T16:35:10.580Z,94122.69
2023-02-26T16:37:37.998Z,94123.19
2023-02-26T16:40:10.764Z,94127.69
2023-02-26T16:42:53.020Z,94137.69
2023-02-26T16:45:26.321Z,94137.94
2023-02-26T16:47:57.361Z,94146.00
2023-02-26T16:50:28.667Z,94155.75
2023-02-26T16:53:15.085Z,94152.00
2023-02-26T16:55:47.392Z,94160.38
2023-02-26T16:58:16.010Z,94170.88
2023-02-26T17:00:50.575Z,94170.34
2023-02-26T17:03:25.121Z,94165.91
2023-02-26T17:06:05.174Z,94172.56
2023-02-26T17:08:36.481Z,94178.63
2023-02-26T17:11:07.378Z,94166.78
2023-02-26T17:13:35.458Z,94163.84
2023-02-26T17:16:07.786Z,94181.25
2023-02-26T17:18:34.402Z,94184.66
2023-02-26T17:21:10.119Z,94175.88
2023-02-26T17:23:38.752Z,94185.41
2023-02-26T17:26:06.241Z,94181.44
2023-02-26T17:28:36.170Z,94197.75
2023-02-26T17:31:04.216Z,94196.41
2023-02-26T17:33:30.929Z,94192.41
2023-02-26T17:36:00.917Z,94207.22
2023-02-26T17:38:28.448Z,94212.22
2023-02-26T17:40:55.781Z,94205.84
2023-02-26T17:43:23.172Z,94230.22
2023-02-26T17:45:50.636Z,94247.22
2023-02-26T17:48:17.808Z,94229.22
2023-02-26T17:50:48.647Z,94228.09
2023-02-26T17:53:16.396Z,94242.06
2023-02-26T17:55:43.675Z,94247.25
2023-02-26T17:58:20.902Z,94254.16
2023-02-26T18:00:50.172Z,94254.66
2023-02-26T18:03:17.432Z,94247.75
2023-02-26T18:05:44.536Z,94255.94
2023-02-26T18:08:36.334Z,94251.97
2023-02-26T18:11:04.172Z,94255.09
2023-02-26T18:13:31.317Z,94253.25
2023-02-26T18:15:58.949Z,94254.34
2023-02-26T18:18:26.102Z,94242.44
2023-02-26T18:20:53.932Z,94237.16
2023-02-26T18:23:20.577Z,94248.50
2023-02-26T18:25:49.491Z,94240.25
2023-02-26T18:28:22.030Z,94245.03
2023-02-26T18:30:49.541Z,94250.28
2023-02-26T18:33:19.036Z,94236.63
2023-02-26T18:35:50.081Z,94241.34
2023-02-26T18:38:20.653Z,94237.63
2023-02-26T18:40:48.807Z,94237.31
2023-02-26T18:43:15.600Z,94246.78
2023-02-26T18:45:46.029Z,94239.50
2023-02-26T18:48:16.037Z,94248.19
2023-02-26T18:50:44.402Z,94246.28
2023-02-26T18:53:11.251Z,94255.25
2023-02-26T18:55:38.447Z,94250.00
2023-02-26T18:58:05.244Z,94249.16
2023-02-26T19:00:32.261Z,94238.84
2023-02-26T19:02:58.962Z,94241.97
2023-02-26T19:05:26.747Z,94243.59
2023-02-26T19:07:55.035Z,94243.78
2023-02-26T19:10:22.492Z,94246.44
2023-02-26T19:12:50.939Z,94265.03
2023-02-26T19:15:18.193Z,94248.00
2023-02-26T19:17:45.275Z,94247.13
2023-02-26T19:20:13.707Z,94253.66
2023-02-26T19:22:41.959Z,94255.13
2023-02-26T19:25:09.580Z,94262.66
2023-02-26T19:27:37.270Z,94254.50
2023-02-26T19:30:05.673Z,94271.22
2023-02-26T19:32:32.644Z,94256.16
2023-02-26T19:34:59.666Z,94272.69
2023-02-26T19:37:26.721Z,94267.31
2023-02-26T19:39:53.366Z,94269.69
2023-02-26T19:42:20.225Z,94266.50
2023-02-26T19:44:46.934Z,94280.41
2023-02-26T19:47:13.551Z,94279.88
2023-02-26T19:49:40.198Z,94284.00
2023-02-26T19:52:08.257Z,94294.25
2023-02-26T19:54:34.972Z,94295.59
2023-02-26T19:57:01.625Z,94284.00
2023-02-26T19:59:28.325Z,94295.06
2023-02-26T20:01:55.031Z,94299.69
2023-02-26T20:04:22.018Z,94307.31
2023-02-26T20:06:48.635Z,94296.84
2023-02-26T20:09:16.131Z,94287.94
2023-02-26T20:11:43.332Z,94301.94
2023-02-26T20:14:09.989Z,94299.22
2023-02-26T20:16:36.719Z,94313.03
2023-02-26T20:19:03.395Z,94316.38
2023-02-26T20:21:30.055Z,94309.47
2023-02-26T20:23:57.702Z,94318.06
2023-02-26T20:26:24.383Z,94321.94
2023-02-26T20:28:51.113Z,94332.56
2023-02-26T20:31:17.902Z,94333.91
2023-02-26T20:33:44.923Z,94342.56
2023-02-26T20:36:11.833Z,94339.72
2023-02-26T20:38:38.571Z,94345.44
2023-02-26T20:41:05.552Z,94351.47
2023-02-26T20:43:33.112Z,94334.03
2023-02-26T20:46:00.033Z,94363.88
2023-02-26T20:48:27.087Z,94355.44
2023-02-26T20:50:59.983Z,94355.53
2023-02-26T20:53:26.996Z,94355.28
2023-02-26T20:55:55.635Z,94348.06
2023-02-26T20:58:23.900Z,94359.72
2023-02-26T21:00:51.349Z,94360.06
2023-02-26T21:03:18.072Z,94357.38
2023-02-26T21:05:46.438Z,94363.41
2023-02-26T21:08:13.957Z,94368.47
2023-02-26T21:10:43.514Z,94360.28
2023-02-26T21:13:10.273Z,94370.06
2023-02-26T21:15:37.013Z,94366.88
2023-02-26T21:18:03.992Z,94366.09
2023-02-26T21:20:30.770Z,94372.94
2023-02-26T21:22:57.555Z,94371.34
2023-02-26T21:25:24.609Z,94371.81
2023-02-26T21:27:51.568Z,94380.06
2023-02-26T21:30:19.860Z,94378.50
2023-02-26T21:32:46.510Z,94379.75
2023-02-26T21:35:16.006Z,94377.84
2023-02-26T21:37:46.235Z,94381.53
2023-02-26T21:40:15.673Z,94370.09
2023-02-26T21:42:42.991Z,94371.44
2023-02-26T21:45:10.424Z,94373.84
2023-02-26T21:47:37.615Z,94371.84
2023-02-26T21:50:05.649Z,94378.13
2023-02-26T21:52:32.457Z,94368.09
2023-02-26T21:54:59.167Z,94363.84
2023-02-26T21:57:27.121Z,94371.47
2023-02-26T21:59:53.905Z,94378.69
2023-02-26T22:02:20.896Z,94370.75
2023-02-26T22:04:47.665Z,94364.72
2023-02-26T22:07:14.347Z,94360.44
2023-02-26T22:09:41.831Z,94364.09
2023-02-26T22:12:08.525Z,94343.75
2023-02-26T22:14:35.324Z,94358.75
2023-02-26T22:17:02.078Z,94361.63
2023-02-26T22:19:28.703Z,94362.31
2023-02-26T22:21:55.345Z,94360.72
2023-02-26T22:24:22.073Z,94364.38
2023-02-26T22:26:49.482Z,94359.47
2023-02-26T22:29:18.321Z,94363.59
2023-02-26T22:31:47.530Z,94363.75
2023-02-26T22:34:14.620Z,94361.69
2023-02-26T22:36:41.389Z,94368.59
2023-02-26T22:39:08.255Z,94381.22
2023-02-26T22:41:36.767Z,94375.44
2023-02-26T22:44:04.800Z,94386.13
2023-02-26T22:46:32.357Z,94364.28
2023-02-26T22:48:59.143Z,94367.41
2023-02-26T22:51:26.103Z,94363.91
2023-02-26T22:53:53.030Z,94381.31
2023-02-26T22:56:19.714Z,94376.88
2023-02-26T22:58:46.357Z,94383.44
2023-02-26T23:01:13.332Z,94384.97
2023-02-26T23:03:40.008Z,94381.53
2023-02-26T23:06:07.569Z,94380.75
2023-02-26T23:08:34.648Z,94372.84
2023-02-26T23:11:02.514Z,94370.88
2023-02-26T23:13:30.811Z,94398.34
2023-02-26T23:15:58.157Z,94391.06
2023-02-26T23:18:25.152Z,94402.66
2023-02-26T23:20:51.943Z,94404.25
2023-02-26T23:23:18.651Z,94398.44
2023-02-26T23:25:45.775Z,94384.53
2023-02-26T23:28:12.412Z,94396.94
2023-02-26T23:30:39.420Z,94393.75
2023-02-26T23:33:07.279Z,94397.41
2023-02-26T23:35:35.244Z,94392.59
2023-02-26T23:38:02.080Z,94375.56
2023-02-26T23:40:28.949Z,94390.09
2023-02-26T23:42:56.205Z,94379.75
2023-02-26T23:45:23.371Z,94389.78
2023-02-26T23:47:50.117Z,94384.22
2023-02-26T23:50:17.079Z,94386.72
2023-02-26T23:52:43.723Z,94378.88
2023-02-26T23:55:11.065Z,94384.66
2023-02-26T23:57:37.917Z,94396.84
